createdAt,value
2023-03-06T00:00:23.999Z,29.60
2023-03-06T00:02:52.143Z,31.58
2023-03-06T00:05:19.349Z,30.30
2023-03-06T00:07:45.888Z,28.35
2023-03-06T00:10:19.004Z,29.25
2023-03-06T00:12:45.561Z,29.48
2023-03-06T00:15:13.508Z,29.85
2023-03-06T00:17:40.797Z,28.60
2023-03-06T00:20:08.872Z,28.45
2023-03-06T00:22:35.648Z,28.00
2023-03-06T00:25:02.156Z,29.23
2023-03-06T00:27:30.603Z,28.33
2023-03-06T00:29:58.585Z,28.77
2023-03-06T00:32:26.405Z,28.70
2023-03-06T00:34:54.196Z,28.73
2023-03-06T00:37:22.821Z,27.80
2023-03-06T00:39:49.673Z,28.38
2023-03-06T00:42:17.518Z,28.05
2023-03-06T00:44:45.238Z,27.98
2023-03-06T00:47:12.338Z,27.73
2023-03-06T00:49:39.090Z,27.35
2023-03-06T00:52:05.740Z,27.20
2023-03-06T00:54:32.291Z,27.65
2023-03-06T00:56:58.859Z,27.25
2023-03-06T00:59:25.422Z,28.95
2023-03-06T01:01:51.983Z,28.10
2023-03-06T01:04:18.594Z,29.00
2023-03-06T01:06:45.469Z,28.17
2023-03-06T01:09:12.326Z,27.30
2023-03-06T01:11:38.860Z,28.75
2023-03-06T01:14:05.403Z,28.02
2023-03-06T01:16:32.068Z,27.98
2023-03-06T01:18:58.940Z,27.92
2023-03-06T01:21:25.919Z,30.17
2023-03-06T01:23:52.482Z,28.67
2023-03-06T01:26:19.050Z,28.95
2023-03-06T01:28:45.890Z,29.08
2023-03-06T01:31:12.762Z,27.92
2023-03-06T01:33:39.331Z,28.23
2023-03-06T01:36:08.430Z,28.98
2023-03-06T01:38:36.037Z,30.17
2023-03-06T01:41:04.004Z,29.17
2023-03-06T01:43:36.096Z,28.23
2023-03-06T01:46:21.310Z,28.83
2023-03-06T01:48:50.151Z,27.20
2023-03-06T01:51:17.448Z,27.77
2023-03-06T01:53:45.984Z,27.67
2023-03-06T01:56:14.206Z,26.58
2023-03-06T01:58:43.791Z,28.30
2023-03-06T02:01:13.184Z,29.73
2023-03-06T02:03:41.471Z,29.90
2023-03-06T02:06:08.710Z,27.42
2023-03-06T02:08:35.563Z,28.48
2023-03-06T02:11:07.916Z,28.10
2023-03-06T02:13:35.661Z,25.88
2023-03-06T02:16:02.430Z,27.52
2023-03-06T02:18:30.277Z,28.05
2023-03-06T02:21:04.022Z,28.70
2023-03-06T02:23:36.733Z,26.93
2023-03-06T02:26:04.149Z,26.98
2023-03-06T02:28:30.842Z,26.92
2023-03-06T02:30:57.528Z,28.05
2023-03-06T02:33:27.232Z,26.08
2023-03-06T02:35:59.878Z,25.95
2023-03-06T02:38:37.414Z,26.95
2023-03-06T02:41:07.684Z,26.42
2023-03-06T02:43:38.083Z,26.75
2023-03-06T02:46:04.758Z,27.45
2023-03-06T02:48:31.377Z,25.83
2023-03-06T02:50:58.056Z,27.08
2023-03-06T02:53:25.008Z,27.08
2023-03-06T02:55:51.966Z,26.75
2023-03-06T02:58:22.309Z,26.55
2023-03-06T03:00:49.606Z,27.00
2023-03-06T03:03:17.354Z,27.53
2023-03-06T03:05:43.964Z,26.08
2023-03-06T03:08:10.756Z,25.88
2023-03-06T03:10:37.280Z,26.20
2023-03-06T03:13:03.859Z,26.25
2023-03-06T03:15:30.425Z,25.57
2023-03-06T03:17:56.985Z,26.63
2023-03-06T03:20:23.959Z,27.20
2023-03-06T03:22:53.330Z,27.00
2023-03-06T03:25:20.927Z,26.83
2023-03-06T03:27:47.703Z,26.27
2023-03-06T03:30:15.367Z,26.35
2023-03-06T03:32:41.905Z,26.03
2023-03-06T03:35:09.630Z,25.87
2023-03-06T03:37:36.752Z,25.77
2023-03-06T03:40:05.127Z,25.83
2023-03-06T03:42:31.751Z,25.00
2023-03-06T03:44:58.290Z,25.17
2023-03-06T03:47:25.288Z,26.07
2023-03-06T03:49:51.830Z,25.77
2023-03-06T03:52:18.348Z,25.53
2023-03-06T03:54:44.942Z,26.03
2023-03-06T03:57:11.677Z,25.30
2023-03-06T03:59:38.281Z,26.60
2023-03-06T04:02:05.131Z,24.60
2023-03-06T04:04:31.832Z,23.90
2023-03-06T04:06:58.536Z,24.93
2023-03-06T04:09:25.396Z,25.53
2023-03-06T04:11:52.160Z,24.10
2023-03-06T04:14:18.812Z,26.30
2023-03-06T04:16:45.360Z,25.83
2023-03-06T04:19:11.888Z,25.37
2023-03-06T04:21:38.433Z,24.90
2023-03-06T04:24:05.453Z,25.10
2023-03-06T04:26:32.027Z,24.73
2023-03-06T04:28:59.030Z,24.93
2023-03-06T04:31:25.722Z,25.85
2023-03-06T04:33:52.257Z,25.00
2023-03-06T04:36:30.245Z,25.13
2023-03-06T04:38:57.489Z,24.53
2023-03-06T04:41:24.167Z,25.00
2023-03-06T04:43:51.264Z,22.60
2023-03-06T04:46:17.917Z,25.93
2023-03-06T04:48:44.570Z,25.23
2023-03-06T04:51:13.760Z,24.57
2023-03-06T04:53:40.404Z,23.43
2023-03-06T04:56:07.439Z,24.33
2023-03-06T04:58:34.056Z,23.33
2023-03-06T05:01:00.808Z,24.47
2023-03-06T05:03:27.480Z,24.17
2023-03-06T05:05:54.032Z,24.33
2023-03-06T05:08:20.854Z,24.33
2023-03-06T05:10:56.083Z,24.87
2023-03-06T05:13:22.687Z,24.63
2023-03-06T05:15:49.333Z,25.73
2023-03-06T05:18:16.849Z,25.57
2023-03-06T05:20:43.637Z,24.60
2023-03-06T05:23:10.196Z,26.63
2023-03-06T05:25:39.502Z,23.27
2023-03-06T05:28:07.167Z,24.33
2023-03-06T05:30:33.966Z,23.20
2023-03-06T05:33:01.364Z,25.43
2023-03-06T05:35:28.280Z,23.73
2023-03-06T05:37:55.077Z,24.13
2023-03-06T05:40:21.667Z,23.87
2023-03-06T05:42:48.226Z,23.87
2023-03-06T05:45:15.201Z,25.10
2023-03-06T05:47:41.752Z,24.67
2023-03-06T05:50:10.530Z,24.17
2023-03-06T05:52:39.570Z,23.60
2023-03-06T05:55:06.854Z,23.93
2023-03-06T05:57:33.537Z,26.10
2023-03-06T06:00:00.147Z,23.77
2023-03-06T06:02:26.859Z,25.27
2023-03-06T06:04:53.584Z,24.30
2023-03-06T06:07:20.291Z,24.10
2023-03-06T06:09:46.817Z,24.33
2023-03-06T06:12:15.419Z,23.80
2023-03-06T06:14:42.048Z,23.30
2023-03-06T06:17:09.049Z,22.93
2023-03-06T06:19:35.768Z,24.47
2023-03-06T06:22:05.456Z,23.80
2023-03-06T06:24:33.035Z,24.77
2023-03-06T06:27:03.395Z,24.30
2023-03-06T06:29:30.882Z,25.80
2023-03-06T06:31:57.670Z,24.70
2023-03-06T06:34:25.440Z,24.73
2023-03-06T06:36:53.734Z,24.07
2023-03-06T06:39:22.571Z,23.63
2023-03-06T06:42:05.582Z,24.03
2023-03-06T06:44:38.512Z,23.60
2023-03-06T06:47:23.977Z,24.27
2023-03-06T06:49:52.806Z,23.40
2023-03-06T06:52:19.532Z,24.77
2023-03-06T06:54:46.224Z,24.13
2023-03-06T06:57:13.262Z,23.20
2023-03-06T06:59:39.802Z,23.20
2023-03-06T07:02:07.233Z,24.33
2023-03-06T07:04:34.126Z,24.27
2023-03-06T07:07:01.225Z,23.88
2023-03-06T07:09:30.046Z,22.67
2023-03-06T07:11:56.784Z,22.10
2023-03-06T07:14:23.544Z,24.07
2023-03-06T07:16:50.236Z,24.90
2023-03-06T07:19:16.807Z,23.13
2023-03-06T07:21:43.334Z,24.95
2023-03-06T07:24:09.876Z,23.85
2023-03-06T07:26:36.840Z,23.38
2023-03-06T07:29:04.512Z,24.48
2023-03-06T07:31:31.392Z,22.27
2023-03-06T07:33:58.050Z,25.13
2023-03-06T07:36:24.884Z,23.77
2023-03-06T07:38:51.419Z,23.13
2023-03-06T07:41:21.879Z,23.60
2023-03-06T07:43:49.787Z,22.85
2023-03-06T07:46:16.400Z,23.58
2023-03-06T07:48:43.178Z,24.30
2023-03-06T07:51:15.461Z,23.38
2023-03-06T07:53:42.259Z,22.75
2023-03-06T07:56:09.512Z,21.23
2023-03-06T07:58:37.790Z,22.58
2023-03-06T08:01:09.731Z,22.42
2023-03-06T08:03:36.332Z,22.25
2023-03-06T08:06:17.876Z,21.45
2023-03-06T08:08:46.564Z,21.98
2023-03-06T08:11:15.031Z,23.02
2023-03-06T08:13:43.079Z,21.80
2023-03-06T08:16:10.365Z,21.23
2023-03-06T08:18:40.069Z,20.77
2023-03-06T08:21:10.509Z,21.55
2023-03-06T08:23:37.737Z,20.38
2023-03-06T08:26:11.847Z,20.98
2023-03-06T08:28:38.434Z,20.13
2023-03-06T08:31:26.424Z,19.90
2023-03-06T08:33:54.692Z,18.52
2023-03-06T08:36:21.223Z,19.13
2023-03-06T08:38:47.949Z,18.60
2023-03-06T08:41:14.473Z,17.88
2023-03-06T08:43:41.060Z,18.17
2023-03-06T08:46:07.693Z,18.50
2023-03-06T08:48:34.416Z,17.15
2023-03-06T08:51:01.033Z,18.98
2023-03-06T08:53:41.752Z,18.13
2023-03-06T08:56:16.424Z,17.77
2023-03-06T08:58:43.485Z,16.98
2023-03-06T09:01:18.103Z,17.98
2023-03-06T09:06:11.549Z,18.92
2023-03-06T09:08:38.560Z,20.15
2023-03-06T09:11:06.043Z,18.23
2023-03-06T09:13:32.610Z,18.98
2023-03-06T09:15:59.152Z,18.58
2023-03-06T09:18:25.759Z,18.85
2023-03-06T09:20:52.368Z,17.38
2023-03-06T09:23:18.921Z,19.10
2023-03-06T09:25:46.158Z,18.48
2023-03-06T09:28:12.821Z,19.52
2023-03-06T09:30:40.751Z,19.90
2023-03-06T09:33:07.841Z,19.77
2023-03-06T09:35:34.385Z,18.88
2023-03-06T09:38:01.129Z,20.23
2023-03-06T09:41:02.714Z,19.70
2023-03-06T09:43:35.470Z,17.98
2023-03-06T09:46:13.678Z,19.80
2023-03-06T09:49:13.073Z,19.52
2023-03-06T09:51:54.550Z,19.98
2023-03-06T09:54:34.554Z,19.65
2023-03-06T09:57:01.076Z,19.88
2023-03-06T09:59:28.583Z,19.77
2023-03-06T10:02:09.998Z,20.83
2023-03-06T10:04:42.559Z,19.73
2023-03-06T10:07:18.471Z,21.10
2023-03-06T10:09:57.129Z,20.10
2023-03-06T10:12:25.602Z,18.58
2023-03-06T10:15:10.820Z,20.05
2023-03-06T10:17:43.294Z,19.02
2023-03-06T10:20:22.167Z,20.67
2023-03-06T10:23:30.379Z,19.05
2023-03-06T10:26:12.150Z,18.60
2023-03-06T10:28:54.029Z,17.67
2023-03-06T10:31:24.473Z,18.58
2023-03-06T10:34:18.969Z,19.85
2023-03-06T10:36:45.552Z,18.40
2023-03-06T10:39:17.357Z,16.38
2023-03-06T10:41:45.396Z,16.15
2023-03-06T10:44:12.468Z,16.05
2023-03-06T10:46:45.003Z,15.38
2023-03-06T10:49:33.928Z,18.13
2023-03-06T10:52:05.722Z,15.82
2023-03-06T10:54:38.198Z,15.85
2023-03-06T10:57:20.067Z,15.63
2023-03-06T11:00:22.923Z,15.60
2023-03-06T11:03:17.369Z,14.35
2023-03-06T11:06:13.025Z,15.87
2023-03-06T11:08:42.000Z,15.23
2023-03-06T11:11:12.950Z,14.23
2023-03-06T11:13:42.121Z,15.20
2023-03-06T11:16:27.390Z,15.60
2023-03-06T11:19:05.496Z,14.82
2023-03-06T11:21:35.353Z,14.77
2023-03-06T11:24:18.643Z,14.60
2023-03-06T11:26:59.605Z,14.00
2023-03-06T11:29:43.917Z,14.45
2023-03-06T11:32:13.467Z,14.40
2023-03-06T11:34:59.239Z,13.93
2023-03-06T11:37:34.476Z,15.43
2023-03-06T11:40:01.085Z,15.25
2023-03-06T11:42:37.880Z,14.05
2023-03-06T11:45:23.350Z,14.35
2023-03-06T11:48:14.201Z,15.43
2023-03-06T11:50:42.883Z,14.70
2023-03-06T11:53:18.667Z,15.43
2023-03-06T11:55:51.134Z,14.60
2023-03-06T11:58:54.929Z,14.52
2023-03-06T12:01:47.887Z,14.30
2023-03-06T12:04:14.389Z,14.63
2023-03-06T12:06:59.544Z,12.95
2023-03-06T12:09:49.110Z,14.25
2023-03-06T12:12:46.674Z,13.77
2023-03-06T12:15:23.847Z,14.38
2023-03-06T12:18:14.708Z,13.25
2023-03-06T12:20:56.714Z,13.35
2023-03-06T12:23:33.058Z,14.30
2023-03-06T12:26:21.923Z,14.07
2023-03-06T12:28:59.425Z,14.38
2023-03-06T12:31:32.220Z,13.95
2023-03-06T12:34:11.214Z,14.18
2023-03-06T12:36:56.381Z,13.55
2023-03-06T12:39:47.669Z,13.60
2023-03-06T12:42:33.026Z,13.98
2023-03-06T12:45:29.577Z,12.40
2023-03-06T12:47:57.267Z,12.23
2023-03-06T12:50:32.583Z,16.73
2023-03-06T12:53:03.826Z,13.65
2023-03-06T12:55:39.978Z,12.52
2023-03-06T12:58:28.074Z,13.05
2023-03-06T13:01:13.871Z,13.25
2023-03-06T13:04:08.132Z,13.25
2023-03-06T13:07:04.132Z,12.20
2023-03-06T13:09:40.087Z,13.20
2023-03-06T13:12:28.342Z,12.80
2023-03-06T13:14:58.384Z,13.90
2023-03-06T13:17:34.810Z,12.70
2023-03-06T13:20:13.847Z,13.70
2023-03-06T13:22:42.145Z,13.13
2023-03-06T13:25:32.726Z,12.88
2023-03-06T13:28:03.323Z,13.35
2023-03-06T13:30:38.766Z,14.10
2023-03-06T13:33:30.117Z,12.98
2023-03-06T13:35:58.791Z,12.88
2023-03-06T13:38:36.438Z,13.60
2023-03-06T13:41:28.097Z,12.93
2023-03-06T13:43:56.794Z,13.32
2023-03-06T13:46:37.195Z,13.18
2023-03-06T13:49:14.852Z,13.55
2023-03-06T13:51:43.218Z,11.75
2023-03-06T13:54:28.563Z,11.75
2023-03-06T13:57:30.079Z,12.15
2023-03-06T14:00:31.401Z,12.45
2023-03-06T14:03:22.633Z,11.95
2023-03-06T14:05:50.793Z,12.77
2023-03-06T14:08:21.925Z,12.45
2023-03-06T14:11:00.829Z,13.65
2023-03-06T14:13:41.825Z,11.40
2023-03-06T14:16:20.767Z,12.98
2023-03-06T14:18:49.514Z,12.07
2023-03-06T14:21:42.349Z,11.43
2023-03-06T14:24:32.570Z,11.90
2023-03-06T14:26:59.151Z,11.13
2023-03-06T14:29:27.999Z,10.82
2023-03-06T14:31:57.537Z,11.48
2023-03-06T14:34:35.866Z,11.10
2023-03-06T14:37:08.099Z,11.55
2023-03-06T14:39:37.290Z,11.15
2023-03-06T14:42:21.953Z,11.13
2023-03-06T14:45:00.137Z,12.32
2023-03-06T14:47:29.757Z,11.13
2023-03-06T14:50:19.341Z,12.10
2023-03-06T14:52:46.372Z,11.35
2023-03-06T14:55:20.770Z,12.95
2023-03-06T14:57:51.150Z,12.15
2023-03-06T15:00:23.190Z,12.15
2023-03-06T15:02:52.523Z,12.35
2023-03-06T15:05:28.928Z,12.45
2023-03-06T15:08:00.187Z,11.07
2023-03-06T15:10:30.305Z,12.55
2023-03-06T15:13:10.330Z,11.80
2023-03-06T15:15:37.121Z,10.98
2023-03-06T15:18:34.396Z,11.65
2023-03-06T15:21:07.790Z,12.25
2023-03-06T15:23:40.133Z,12.45
2023-03-06T15:26:29.611Z,11.55
2023-03-06T15:29:09.612Z,12.35
2023-03-06T15:31:42.147Z,12.40
2023-03-06T15:34:11.529Z,12.10
2023-03-06T15:36:47.384Z,11.55
2023-03-06T15:39:31.225Z,12.52
2023-03-06T15:42:05.966Z,12.57
2023-03-06T15:44:33.007Z,12.93
2023-03-06T15:47:08.498Z,13.15
2023-03-06T15:49:38.150Z,12.15
2023-03-06T15:52:06.939Z,11.77
2023-03-06T15:54:33.791Z,11.98
2023-03-06T15:57:00.874Z,12.07
2023-03-06T15:59:33.235Z,12.05
2023-03-06T16:02:10.731Z,13.50
2023-03-06T16:04:37.647Z,11.68
2023-03-06T16:07:04.201Z,12.00
2023-03-06T16:09:30.791Z,12.65
2023-03-06T16:11:57.346Z,13.10
2023-03-06T16:14:24.082Z,12.07
2023-03-06T16:16:52.607Z,11.25
2023-03-06T16:19:28.186Z,13.07
2023-03-06T16:21:59.021Z,11.63
2023-03-06T16:24:26.618Z,12.75
2023-03-06T16:26:54.986Z,12.38
2023-03-06T16:29:24.020Z,12.32
2023-03-06T16:31:50.766Z,12.80
2023-03-06T16:34:19.916Z,12.98
2023-03-06T16:36:48.005Z,13.57
2023-03-06T16:39:19.931Z,12.65
2023-03-06T16:41:47.213Z,12.73
2023-03-06T16:44:13.986Z,12.13
2023-03-06T16:46:47.249Z,12.27
2023-03-06T16:49:25.026Z,12.30
2023-03-06T16:51:52.953Z,13.23
2023-03-06T16:54:20.276Z,11.40
2023-03-06T16:56:46.934Z,12.77
2023-03-06T16:59:13.671Z,12.90
2023-03-06T17:01:43.107Z,12.55
2023-03-06T17:04:11.194Z,11.82
2023-03-06T17:06:38.433Z,12.80
2023-03-06T17:09:05.366Z,12.90
2023-03-06T17:11:31.910Z,12.32
2023-03-06T17:13:58.557Z,13.32
2023-03-06T17:16:25.159Z,12.88
2023-03-06T17:18:52.445Z,14.93
2023-03-06T17:21:19.165Z,13.27
2023-03-06T17:23:46.067Z,12.93
2023-03-06T17:26:15.373Z,13.63
2023-03-06T17:28:43.142Z,12.77
2023-03-06T17:31:18.054Z,12.85
2023-03-06T17:33:45.440Z,14.20
2023-03-06T17:36:14.394Z,13.25
2023-03-06T17:38:41.954Z,11.85
2023-03-06T17:41:10.534Z,12.65
2023-03-06T17:43:38.990Z,13.23
2023-03-06T17:46:10.668Z,14.55
2023-03-06T17:48:37.607Z,12.95
2023-03-06T17:51:04.848Z,14.90
2023-03-06T17:53:31.955Z,13.93
2023-03-06T17:55:59.107Z,13.50
2023-03-06T17:58:27.064Z,14.45
2023-03-06T18:00:54.094Z,13.95
2023-03-06T18:03:20.646Z,14.25
2023-03-06T18:05:47.288Z,14.38
2023-03-06T18:08:14.592Z,15.20
2023-03-06T18:10:42.011Z,14.50
2023-03-06T18:13:10.537Z,14.43
2023-03-06T18:15:40.943Z,14.88
2023-03-06T18:18:08.821Z,13.40
2023-03-06T18:20:41.213Z,14.57
2023-03-06T18:23:07.931Z,15.70
2023-03-06T18:25:34.769Z,15.32
2023-03-06T18:28:01.530Z,15.52
2023-03-06T18:30:28.093Z,14.73
2023-03-06T18:32:54.700Z,15.82
2023-03-06T18:35:21.792Z,16.67
2023-03-06T18:37:48.509Z,17.05
2023-03-06T18:40:15.630Z,17.05
2023-03-06T18:42:42.270Z,18.23
2023-03-06T18:45:09.931Z,17.45
2023-03-06T18:47:36.491Z,19.02
2023-03-06T18:50:03.266Z,20.23
2023-03-06T18:52:29.860Z,22.15
2023-03-06T18:54:56.550Z,23.10
2023-03-06T18:57:23.102Z,22.70
2023-03-06T18:59:50.107Z,28.58
2023-03-06T19:02:17.088Z,25.63
2023-03-06T19:04:43.607Z,24.45
2023-03-06T19:07:10.190Z,20.40
2023-03-06T19:09:36.803Z,20.05
2023-03-06T19:12:03.578Z,19.77
2023-03-06T19:14:30.397Z,17.33
2023-03-06T19:16:57.063Z,17.38
2023-03-06T19:19:26.359Z,17.52
2023-03-06T19:21:53.557Z,18.52
2023-03-06T19:24:20.125Z,19.08
2023-03-06T19:26:46.641Z,18.85
2023-03-06T19:29:13.235Z,16.50
2023-03-06T19:31:39.796Z,17.55
2023-03-06T19:34:06.394Z,17.33
2023-03-06T19:36:34.271Z,18.73
2023-03-06T19:39:03.662Z,20.60
2023-03-06T19:41:31.230Z,19.10
2023-03-06T19:43:59.837Z,17.13
2023-03-06T19:46:27.115Z,18.35
2023-03-06T19:48:57.733Z,18.95
2023-03-06T19:51:25.608Z,19.45
2023-03-06T19:53:52.527Z,19.55
2023-03-06T19:56:26.269Z,20.05
2023-03-06T19:58:53.179Z,19.92
2023-03-06T20:01:21.428Z,18.88
2023-03-06T20:03:50.005Z,19.33
2023-03-06T20:06:19.213Z,19.02
2023-03-06T20:08:47.255Z,17.75
2023-03-06T20:11:16.533Z,18.65
2023-03-06T20:13:47.369Z,19.30
2023-03-06T20:16:14.705Z,19.27
2023-03-06T20:18:41.509Z,19.80
2023-03-06T20:21:08.086Z,18.67
2023-03-06T20:23:34.978Z,20.33
2023-03-06T20:26:03.551Z,17.90
2023-03-06T20:28:30.453Z,19.10
2023-03-06T20:30:57.346Z,19.08
2023-03-06T20:33:24.033Z,17.77
2023-03-06T20:35:50.646Z,16.50
2023-03-06T20:38:17.216Z,17.05
2023-03-06T20:40:44.033Z,16.92
2023-03-06T20:43:10.756Z,17.55
2023-03-06T20:45:37.355Z,18.33
2023-03-06T20:48:03.934Z,18.10
2023-03-06T20:50:31.204Z,16.85
2023-03-06T20:52:58.879Z,17.80
2023-03-06T20:55:25.606Z,18.65
2023-03-06T20:57:52.551Z,17.50
2023-03-06T21:00:20.941Z,18.30
2023-03-06T21:02:47.540Z,17.30
2023-03-06T21:05:14.283Z,16.63
2023-03-06T21:07:40.968Z,17.15
2023-03-06T21:10:08.633Z,17.73
2023-03-06T21:12:35.123Z,18.10
2023-03-06T21:15:01.842Z,20.10
2023-03-06T21:17:30.252Z,19.52
2023-03-06T21:19:58.396Z,20.13
2023-03-06T21:22:25.463Z,22.67
2023-03-06T21:24:52.011Z,22.75
2023-03-06T21:27:18.545Z,22.05
2023-03-06T21:29:45.448Z,23.27
2023-03-06T21:32:12.029Z,24.83
2023-03-06T21:34:38.553Z,24.23
2023-03-06T21:37:05.072Z,23.50
2023-03-06T21:39:31.633Z,25.40
2023-03-06T21:41:58.178Z,26.02
2023-03-06T21:44:24.771Z,26.10
2023-03-06T21:46:51.324Z,26.08
2023-03-06T21:49:18.281Z,26.70
2023-03-06T21:51:44.805Z,27.45
2023-03-06T21:54:13.061Z,26.23
2023-03-06T21:56:39.667Z,26.20
2023-03-06T21:59:06.230Z,26.45
2023-03-06T22:01:32.808Z,27.25
2023-03-06T22:04:00.137Z,25.52
2023-03-06T22:06:30.395Z,26.08
2023-03-06T22:08:59.242Z,25.77
2023-03-06T22:11:28.156Z,26.52
2023-03-06T22:13:54.705Z,23.92
2023-03-06T22:16:21.813Z,23.73
2023-03-06T22:18:51.101Z,23.00
2023-03-06T22:21:19.596Z,23.90
2023-03-06T22:23:54.727Z,23.92
2023-03-06T22:26:21.597Z,22.17
2023-03-06T22:28:48.283Z,22.92
2023-03-06T22:31:20.370Z,21.83
2023-03-06T22:33:47.052Z,23.17
2023-03-06T22:36:15.774Z,21.73
2023-03-06T22:38:44.686Z,23.83
2023-03-06T22:41:12.758Z,20.88
2023-03-06T22:43:39.706Z,20.10
2023-03-06T22:46:11.857Z,21.80
2023-03-06T22:48:38.565Z,21.75
2023-03-06T22:51:07.403Z,21.70
2023-03-06T22:53:34.451Z,20.63
2023-03-06T22:56:02.521Z,21.02
2023-03-06T22:58:36.842Z,20.95
2023-03-06T23:01:08.918Z,19.48
2023-03-06T23:03:37.273Z,19.17
2023-03-06T23:06:16.044Z,21.27
2023-03-06T23:08:43.945Z,19.83
2023-03-06T23:11:13.278Z,19.20
2023-03-06T23:13:40.060Z,19.25
2023-03-06T23:16:08.894Z,19.27
2023-03-06T23:18:36.905Z,18.42
2023-03-06T23:21:14.489Z,17.75
2023-03-06T23:23:41.776Z,18.95
2023-03-06T23:26:09.063Z,19.02
2023-03-06T23:28:35.865Z,18.25
2023-03-06T23:31:14.710Z,16.80
2023-03-06T23:33:41.778Z,16.55
2023-03-06T23:36:11.320Z,17.25
2023-03-06T23:38:38.513Z,17.80
2023-03-06T23:41:12.214Z,16.52
2023-03-06T23:43:39.134Z,16.85
2023-03-06T23:46:07.300Z,16.73
2023-03-06T23:48:35.795Z,17.67
2023-03-06T23:51:07.372Z,18.42
2023-03-06T23:53:34.087Z,17.10
2023-03-06T23:56:00.857Z,17.65
2023-03-06T23:58:27.473Z,17.42
